QTR1460 HCMM-HDAM
Flight info
| Callsign | QTR1460 |
|---|---|
| Flight time | N/A |
| Altitude | 38000 |
| Route | MOGDU UR775 LUBAR LUBAR1R |
| Aircraft | A320/M-SDE3FGHIRWY/LB1 |
Departure
| Time | 2026-05-05 18:29 |
|---|---|
| Airport | Aden Adde International Airport (HCMM) |
Arrival
| Time | N/A |
|---|---|
| Airport | Djibouti-Ambouli Airport (HDAM) |
| Time | Latitude | Longitude | Altitude | Speed | Heading |
|---|---|---|---|---|---|
| 2026-05-05 17:51 | 2.01779 | 45.30467 | 28 ft | 0 kts | 324° |
| 2026-05-05 18:21 | 2.01779 | 45.30468 | 30 ft | 1 kts | 324° |
| 2026-05-05 18:21 | 2.01759 | 45.30482 | 27 ft | 4 kts | 323° |
| 2026-05-05 18:21 | 2.01742 | 45.30494 | 30 ft | 4 kts | 344° |
| 2026-05-05 18:21 | 2.01722 | 45.30490 | 30 ft | 3 kts | 51° |
| 2026-05-05 18:22 | 2.01709 | 45.30474 | 30 ft | 0 kts | 51° |
| 2026-05-05 18:24 | 2.01719 | 45.30486 | 30 ft | 5 kts | 51° |
| 2026-05-05 18:24 | 2.01747 | 45.30520 | 30 ft | 7 kts | 49° |
| 2026-05-05 18:24 | 2.01742 | 45.30568 | 30 ft | 10 kts | 141° |
| 2026-05-05 18:24 | 2.01679 | 45.30621 | 30 ft | 14 kts | 139° |
| 2026-05-05 18:25 | 2.01649 | 45.30704 | 30 ft | 15 kts | 52° |
| 2026-05-05 18:25 | 2.01697 | 45.30759 | 30 ft | 17 kts | 49° |
| 2026-05-05 18:25 | 2.01808 | 45.30889 | 31 ft | 20 kts | 50° |
| 2026-05-05 18:25 | 2.01903 | 45.31004 | 32 ft | 23 kts | 51° |
| 2026-05-05 18:26 | 2.02011 | 45.31137 | 31 ft | 26 kts | 50° |
| 2026-05-05 18:26 | 2.02136 | 45.31286 | 31 ft | 29 kts | 49° |
| 2026-05-05 18:26 | 2.02248 | 45.31417 | 31 ft | 19 kts | 49° |
| 2026-05-05 18:26 | 2.02290 | 45.31489 | 31 ft | 8 kts | 51° |
| 2026-05-05 18:27 | 2.02308 | 45.31493 | 31 ft | 2 kts | 329° |
| 2026-05-05 18:27 | 2.02302 | 45.31481 | 31 ft | 3 kts | 231° |
| 2026-05-05 18:27 | 2.02298 | 45.31476 | 31 ft | 0 kts | 230° |
| 2026-05-05 18:28 | 2.02240 | 45.31406 | 31 ft | 48 kts | 230° |
| 2026-05-05 18:28 | 2.01856 | 45.30952 | 32 ft | 118 kts | 230° |
| 2026-05-05 18:28 | 2.01210 | 45.30179 | 50 ft | 168 kts | 230° |
| 2026-05-05 18:29 | 2.00459 | 45.29259 | 793 ft | 166 kts | 231° |
| 2026-05-05 18:29 | 1.99558 | 45.28594 | 1672 ft | 166 kts | 192° |
| 2026-05-05 18:29 | 1.98391 | 45.28814 | 2234 ft | 186 kts | 157° |
| 2026-05-05 18:29 | 1.97160 | 45.29421 | 2553 ft | 209 kts | 157° |
| 2026-05-05 18:30 | 1.95819 | 45.30074 | 3268 ft | 217 kts | 157° |
| 2026-05-05 18:30 | 1.94449 | 45.30729 | 4153 ft | 220 kts | 157° |
| 2026-05-05 18:30 | 1.93050 | 45.31385 | 5027 ft | 224 kts | 158° |
| 2026-05-05 18:30 | 1.91638 | 45.32038 | 5859 ft | 228 kts | 158° |
| 2026-05-05 18:31 | 1.90157 | 45.32715 | 6693 ft | 234 kts | 158° |
| 2026-05-05 18:31 | 1.88664 | 45.33392 | 7498 ft | 238 kts | 157° |
| 2026-05-05 18:31 | 1.87145 | 45.34079 | 8346 ft | 241 kts | 156° |
| 2026-05-05 18:31 | 1.85605 | 45.34774 | 9185 ft | 245 kts | 155° |
| 2026-05-05 18:32 | 1.84038 | 45.35476 | 10017 ft | 249 kts | 154° |
| 2026-05-05 18:32 | 1.82465 | 45.36176 | 10778 ft | 252 kts | 154° |
| 2026-05-05 18:32 | 1.80851 | 45.36897 | 11550 ft | 256 kts | 153° |
| 2026-05-05 18:32 | 1.79214 | 45.37633 | 12341 ft | 260 kts | 153° |
| 2026-05-05 18:33 | 1.77570 | 45.38400 | 13126 ft | 262 kts | 147° |
| 2026-05-05 18:33 | 1.76094 | 45.39503 | 13672 ft | 274 kts | 134° |
| 2026-05-05 18:33 | 1.74652 | 45.40871 | 13916 ft | 298 kts | 134° |
| 2026-05-05 18:33 | 1.73117 | 45.42341 | 14319 ft | 312 kts | 134° |
| 2026-05-05 18:34 | 1.71531 | 45.43856 | 14936 ft | 317 kts | 134° |
| 2026-05-05 18:34 | 1.69920 | 45.45384 | 15594 ft | 321 kts | 134° |
| 2026-05-05 18:34 | 1.68285 | 45.46928 | 16267 ft | 325 kts | 135° |
| 2026-05-05 18:34 | 1.66721 | 45.48571 | 16923 ft | 327 kts | 124° |
| 2026-05-05 18:35 | 1.65717 | 45.50596 | 17559 ft | 328 kts | 104° |
| 2026-05-05 18:35 | 1.65427 | 45.52863 | 18037 ft | 337 kts | 86° |
| 2026-05-05 18:35 | 1.65945 | 45.55195 | 18171 ft | 354 kts | 66° |
| 2026-05-05 18:35 | 1.67123 | 45.57421 | 18365 ft | 369 kts | 61° |
| 2026-05-05 18:36 | 1.68382 | 45.59688 | 18773 ft | 375 kts | 61° |
| 2026-05-05 18:36 | 1.69652 | 45.61983 | 19280 ft | 379 kts | 61° |
| 2026-05-05 18:36 | 1.70929 | 45.64307 | 19802 ft | 383 kts | 61° |
| 2026-05-05 18:36 | 1.72226 | 45.66640 | 20328 ft | 386 kts | 58° |
| 2026-05-05 18:37 | 1.73838 | 45.68799 | 20820 ft | 390 kts | 48° |
| 2026-05-05 18:37 | 1.75700 | 45.70788 | 21328 ft | 393 kts | 46° |
| 2026-05-05 18:37 | 1.77588 | 45.72783 | 21824 ft | 397 kts | 46° |
| 2026-05-05 18:37 | 1.79493 | 45.74791 | 22323 ft | 400 kts | 46° |
| 2026-05-05 18:38 | 1.81415 | 45.76818 | 22829 ft | 403 kts | 46° |
| 2026-05-05 18:38 | 1.83354 | 45.78863 | 23329 ft | 406 kts | 46° |
| 2026-05-05 18:38 | 1.85307 | 45.80922 | 23747 ft | 410 kts | 46° |
| 2026-05-05 18:38 | 1.87245 | 45.82971 | 24136 ft | 413 kts | 46° |
| 2026-05-05 18:39 | 1.89220 | 45.85068 | 24544 ft | 415 kts | 46° |
| 2026-05-05 18:39 | 1.91236 | 45.87144 | 24953 ft | 417 kts | 41° |
| 2026-05-05 18:39 | 1.93587 | 45.88849 | 25334 ft | 420 kts | 29° |
| 2026-05-05 18:39 | 1.96261 | 45.90019 | 25723 ft | 422 kts | 17° |
| 2026-05-05 18:40 | 1.99151 | 45.90587 | 26119 ft | 424 kts | 4° |
| 2026-05-05 18:40 | 2.02103 | 45.90530 | 26514 ft | 426 kts | 352° |
| 2026-05-05 18:40 | 2.05038 | 45.90063 | 26901 ft | 429 kts | 351° |
| 2026-05-05 18:40 | 2.07987 | 45.89576 | 27297 ft | 431 kts | 350° |
| 2026-05-05 18:41 | 2.10952 | 45.89087 | 27683 ft | 433 kts | 351° |
| 2026-05-05 18:41 | 2.13929 | 45.88599 | 28067 ft | 435 kts | 350° |
| 2026-05-05 18:41 | 2.16931 | 45.88108 | 28459 ft | 438 kts | 350° |
| 2026-05-05 18:41 | 2.19940 | 45.87619 | 28858 ft | 440 kts | 350° |
| 2026-05-05 18:42 | 2.22971 | 45.87127 | 29272 ft | 442 kts | 350° |
| 2026-05-05 18:42 | 2.26015 | 45.86629 | 29679 ft | 445 kts | 350° |
| 2026-05-05 18:42 | 2.29086 | 45.86128 | 30064 ft | 448 kts | 350° |
| 2026-05-05 18:42 | 2.32173 | 45.85624 | 30392 ft | 450 kts | 350° |
| 2026-05-05 18:43 | 2.35272 | 45.85114 | 30711 ft | 453 kts | 350° |
| 2026-05-05 18:43 | 2.38388 | 45.84597 | 31045 ft | 456 kts | 350° |
| 2026-05-05 18:43 | 2.41525 | 45.84078 | 31376 ft | 458 kts | 351° |
| 2026-05-05 18:43 | 2.44678 | 45.83560 | 31709 ft | 461 kts | 351° |
| 2026-05-05 18:44 | 2.47851 | 45.83041 | 32061 ft | 463 kts | 351° |
| 2026-05-05 18:44 | 2.51021 | 45.82525 | 32538 ft | 461 kts | 351° |
| 2026-05-05 18:44 | 2.54187 | 45.82011 | 33046 ft | 460 kts | 351° |
| 2026-05-05 18:44 | 2.57337 | 45.81497 | 33560 ft | 459 kts | 351° |
| 2026-05-05 18:45 | 2.60483 | 45.80981 | 34061 ft | 458 kts | 351° |
| 2026-05-05 18:45 | 2.63627 | 45.80464 | 34511 ft | 457 kts | 351° |
| 2026-05-05 18:45 | 2.66756 | 45.79949 | 34941 ft | 456 kts | 351° |
| 2026-05-05 18:45 | 2.69882 | 45.79438 | 35369 ft | 455 kts | 351° |
| 2026-05-05 18:46 | 2.73010 | 45.78927 | 35778 ft | 455 kts | 351° |
| 2026-05-05 18:46 | 2.76128 | 45.78418 | 36170 ft | 455 kts | 351° |
| 2026-05-05 18:46 | 2.79252 | 45.77905 | 36540 ft | 455 kts | 351° |
| 2026-05-05 18:46 | 2.82378 | 45.77391 | 36913 ft | 456 kts | 351° |
| 2026-05-05 18:47 | 2.85467 | 45.76888 | 37273 ft | 456 kts | 351° |
| 2026-05-05 18:47 | 2.88599 | 45.76378 | 37620 ft | 456 kts | 351° |
| 2026-05-05 18:47 | 2.91737 | 45.75865 | 37890 ft | 458 kts | 351° |
| 2026-05-05 18:47 | 2.94883 | 45.75350 | 37942 ft | 458 kts | 351° |
| 2026-05-05 18:48 | 3.01160 | 45.74270 | 37941 ft | 458 kts | 346° |
| 2026-05-05 18:48 | 3.07100 | 45.72000 | 37942 ft | 458 kts | 336° |
| 2026-05-05 18:49 | 3.12907 | 45.69354 | 37942 ft | 458 kts | 336° |
| 2026-05-05 18:49 | 3.18720 | 45.66722 | 37942 ft | 458 kts | 336° |
| 2026-05-05 18:50 | 3.24534 | 45.64096 | 37949 ft | 459 kts | 336° |
| 2026-05-05 18:50 | 3.30355 | 45.61465 | 37951 ft | 459 kts | 336° |
| 2026-05-05 18:51 | 3.36184 | 45.58831 | 37955 ft | 460 kts | 336° |
| 2026-05-05 18:51 | 3.41974 | 45.56215 | 37962 ft | 460 kts | 336° |
| 2026-05-05 18:52 | 3.47837 | 45.53559 | 37962 ft | 460 kts | 336° |
| 2026-05-05 18:52 | 3.53628 | 45.50943 | 37965 ft | 459 kts | 336° |
| 2026-05-05 18:53 | 3.59447 | 45.48313 | 37965 ft | 459 kts | 336° |
| 2026-05-05 18:53 | 3.65272 | 45.45678 | 37964 ft | 459 kts | 336° |
| 2026-05-05 18:54 | 3.71095 | 45.43036 | 37966 ft | 459 kts | 336° |
| 2026-05-05 18:54 | 3.76910 | 45.40399 | 37968 ft | 459 kts | 336° |
| 2026-05-05 18:55 | 3.82732 | 45.37769 | 37972 ft | 459 kts | 336° |
| 2026-05-05 18:55 | 3.88593 | 45.35259 | 37973 ft | 457 kts | 344° |
| 2026-05-05 18:56 | 3.94804 | 45.33974 | 37970 ft | 456 kts | 351° |
| 2026-05-05 18:56 | 3.99993 | 45.33045 | 37973 ft | 456 kts | 351° |
| 2026-05-05 18:57 | 4.06232 | 45.31919 | 37973 ft | 455 kts | 351° |
| 2026-05-05 18:57 | 4.13474 | 45.30599 | 37973 ft | 455 kts | 350° |
| 2026-05-05 18:58 | 4.19699 | 45.29474 | 37974 ft | 455 kts | 350° |
| 2026-05-05 18:58 | 4.24915 | 45.28528 | 37982 ft | 455 kts | 350° |
| 2026-05-05 18:59 | 4.31139 | 45.27403 | 37978 ft | 454 kts | 350° |
| 2026-05-05 18:59 | 4.37313 | 45.26292 | 37974 ft | 454 kts | 350° |
| 2026-05-05 19:00 | 4.43522 | 45.25169 | 37978 ft | 453 kts | 350° |
| 2026-05-05 19:00 | 4.49724 | 45.24047 | 37977 ft | 453 kts | 350° |
| 2026-05-05 19:01 | 4.55924 | 45.22926 | 37981 ft | 453 kts | 350° |
| 2026-05-05 19:01 | 4.62124 | 45.21796 | 37971 ft | 453 kts | 350° |
| 2026-05-05 19:02 | 4.68324 | 45.20677 | 37972 ft | 452 kts | 350° |
| 2026-05-05 19:02 | 4.74516 | 45.19563 | 37981 ft | 452 kts | 350° |
| 2026-05-05 19:03 | 4.80708 | 45.18438 | 37976 ft | 452 kts | 349° |
| 2026-05-05 19:03 | 4.86906 | 45.17311 | 37975 ft | 452 kts | 349° |
| 2026-05-05 19:04 | 4.93097 | 45.16191 | 37975 ft | 452 kts | 349° |
| 2026-05-05 19:04 | 4.99290 | 45.15071 | 37974 ft | 452 kts | 349° |
| 2026-05-05 19:05 | 5.05495 | 45.13947 | 37975 ft | 453 kts | 349° |
| 2026-05-05 19:05 | 5.11681 | 45.12763 | 37971 ft | 453 kts | 347° |
| 2026-05-05 19:06 | 5.17811 | 45.11287 | 37978 ft | 453 kts | 346° |
| 2026-05-05 19:06 | 5.23925 | 45.09725 | 37977 ft | 453 kts | 346° |
| 2026-05-05 19:07 | 5.30047 | 45.08220 | 37978 ft | 453 kts | 346° |
| 2026-05-05 19:07 | 5.36181 | 45.06759 | 37978 ft | 453 kts | 347° |
| 2026-05-05 19:08 | 5.42308 | 45.05308 | 37978 ft | 452 kts | 347° |
| 2026-05-05 19:08 | 5.48389 | 45.03861 | 37974 ft | 452 kts | 347° |
| 2026-05-05 19:09 | 5.54551 | 45.02380 | 37974 ft | 452 kts | 347° |
| 2026-05-05 19:09 | 5.60629 | 45.00923 | 37972 ft | 452 kts | 347° |
| 2026-05-05 19:10 | 5.66748 | 44.99458 | 37968 ft | 452 kts | 347° |
| 2026-05-05 19:10 | 5.72864 | 44.97991 | 37967 ft | 452 kts | 347° |
| 2026-05-05 19:11 | 5.78982 | 44.96524 | 37968 ft | 452 kts | 347° |
| 2026-05-05 19:11 | 5.85099 | 44.95054 | 37965 ft | 452 kts | 347° |
| 2026-05-05 19:12 | 5.91222 | 44.93585 | 37962 ft | 452 kts | 347° |
| 2026-05-05 19:12 | 5.97345 | 44.92119 | 37960 ft | 452 kts | 347° |
| 2026-05-05 19:13 | 6.03463 | 44.90647 | 37963 ft | 452 kts | 347° |
| 2026-05-05 19:13 | 6.09584 | 44.89176 | 37965 ft | 452 kts | 347° |
| 2026-05-05 19:14 | 6.15658 | 44.87716 | 37962 ft | 452 kts | 347° |
| 2026-05-05 19:14 | 6.21776 | 44.86245 | 37963 ft | 452 kts | 347° |
| 2026-05-05 19:15 | 6.27888 | 44.84771 | 37961 ft | 452 kts | 347° |
| 2026-05-05 19:15 | 6.34006 | 44.83302 | 37966 ft | 452 kts | 347° |
| 2026-05-05 19:16 | 6.40120 | 44.81841 | 37966 ft | 452 kts | 347° |
| 2026-05-05 19:16 | 6.46248 | 44.80368 | 37971 ft | 453 kts | 347° |
| 2026-05-05 19:17 | 6.52373 | 44.78894 | 37975 ft | 453 kts | 347° |
| 2026-05-05 19:17 | 6.58495 | 44.77419 | 37977 ft | 452 kts | 347° |
| 2026-05-05 19:18 | 6.64615 | 44.75935 | 37974 ft | 452 kts | 347° |
| 2026-05-05 19:18 | 6.70737 | 44.74458 | 37973 ft | 452 kts | 347° |
| 2026-05-05 19:19 | 6.76825 | 44.73003 | 37975 ft | 453 kts | 347° |
| 2026-05-05 19:19 | 6.82959 | 44.71556 | 37977 ft | 453 kts | 347° |
| 2026-05-05 19:20 | 6.89094 | 44.70111 | 37982 ft | 453 kts | 347° |
| 2026-05-05 19:20 | 6.95233 | 44.68657 | 37991 ft | 453 kts | 347° |
| 2026-05-05 19:21 | 7.01364 | 44.67197 | 37990 ft | 453 kts | 347° |
| 2026-05-05 19:21 | 7.07497 | 44.65735 | 37994 ft | 453 kts | 347° |
| 2026-05-05 19:22 | 7.13633 | 44.64281 | 37996 ft | 453 kts | 347° |
| 2026-05-05 19:22 | 7.19758 | 44.62826 | 38003 ft | 452 kts | 347° |
| 2026-05-05 19:23 | 7.25884 | 44.61367 | 38001 ft | 452 kts | 347° |
| 2026-05-05 19:23 | 7.32007 | 44.59905 | 38004 ft | 452 kts | 347° |
| 2026-05-05 19:24 | 7.38083 | 44.58462 | 38003 ft | 452 kts | 347° |
| 2026-05-05 19:24 | 7.44193 | 44.57008 | 38003 ft | 451 kts | 347° |
| 2026-05-05 19:25 | 7.50344 | 44.55543 | 38005 ft | 451 kts | 347° |
| 2026-05-05 19:25 | 7.56413 | 44.54100 | 38000 ft | 451 kts | 347° |
| 2026-05-05 19:26 | 7.62508 | 44.52644 | 37997 ft | 451 kts | 347° |
| 2026-05-05 19:26 | 7.68612 | 44.51195 | 38001 ft | 450 kts | 347° |
| 2026-05-05 19:27 | 7.74716 | 44.49743 | 38000 ft | 450 kts | 347° |
| 2026-05-05 19:27 | 7.80814 | 44.48292 | 38000 ft | 450 kts | 347° |
| 2026-05-05 19:28 | 7.86903 | 44.46825 | 37998 ft | 450 kts | 347° |
| 2026-05-05 19:28 | 7.92993 | 44.45367 | 37994 ft | 450 kts | 347° |
| 2026-05-05 19:29 | 7.99087 | 44.43921 | 37999 ft | 450 kts | 347° |
| 2026-05-05 19:29 | 8.05177 | 44.42468 | 38001 ft | 449 kts | 347° |
| 2026-05-05 19:30 | 8.11263 | 44.41016 | 37999 ft | 449 kts | 347° |
| 2026-05-05 19:30 | 8.17344 | 44.39563 | 38001 ft | 449 kts | 347° |
| 2026-05-05 19:31 | 8.23431 | 44.38113 | 38005 ft | 449 kts | 347° |
| 2026-05-05 19:31 | 8.29466 | 44.36666 | 38008 ft | 449 kts | 347° |
| 2026-05-05 19:32 | 8.35547 | 44.35208 | 38008 ft | 449 kts | 347° |
| 2026-05-05 19:32 | 8.41620 | 44.33757 | 38007 ft | 449 kts | 347° |
| 2026-05-05 19:33 | 8.47697 | 44.32306 | 38011 ft | 449 kts | 347° |
| 2026-05-05 19:33 | 8.53771 | 44.30850 | 38011 ft | 449 kts | 347° |
| 2026-05-05 19:34 | 8.59842 | 44.29399 | 38016 ft | 448 kts | 347° |
| 2026-05-05 19:35 | 8.68956 | 44.27217 | 38016 ft | 448 kts | 347° |
| 2026-05-05 19:35 | 8.75021 | 44.25758 | 38011 ft | 448 kts | 347° |
| 2026-05-05 19:36 | 8.81092 | 44.24296 | 38016 ft | 448 kts | 347° |
| 2026-05-05 19:36 | 8.87120 | 44.22844 | 38016 ft | 448 kts | 347° |
| 2026-05-05 19:37 | 8.93195 | 44.21404 | 38014 ft | 448 kts | 348° |
| 2026-05-05 19:37 | 8.99297 | 44.20109 | 38013 ft | 448 kts | 349° |
| 2026-05-05 19:38 | 9.05409 | 44.18889 | 38012 ft | 448 kts | 349° |
| 2026-05-05 19:38 | 9.11520 | 44.17648 | 38011 ft | 448 kts | 349° |
| 2026-05-05 19:39 | 9.17622 | 44.16380 | 38015 ft | 448 kts | 349° |
| 2026-05-05 19:39 | 9.23726 | 44.15104 | 38010 ft | 448 kts | 349° |
| 2026-05-05 19:40 | 9.29830 | 44.13829 | 38006 ft | 448 kts | 349° |
| 2026-05-05 19:40 | 9.35934 | 44.12556 | 38016 ft | 448 kts | 349° |
| 2026-05-05 19:41 | 9.42030 | 44.11287 | 38014 ft | 447 kts | 349° |
| 2026-05-05 19:41 | 9.48093 | 44.10031 | 38011 ft | 447 kts | 349° |
| 2026-05-05 19:42 | 9.54068 | 44.08308 | 38013 ft | 448 kts | 336° |
| 2026-05-05 19:42 | 9.59704 | 44.05606 | 38007 ft | 448 kts | 335° |
| 2026-05-05 19:43 | 9.65351 | 44.02914 | 38007 ft | 449 kts | 335° |
| 2026-05-05 19:43 | 9.71006 | 44.00224 | 37998 ft | 449 kts | 335° |
| 2026-05-05 19:44 | 9.76658 | 43.97523 | 37994 ft | 449 kts | 335° |
| 2026-05-05 19:44 | 9.82312 | 43.94814 | 37990 ft | 449 kts | 335° |
| 2026-05-05 19:45 | 9.87971 | 43.92119 | 37982 ft | 450 kts | 335° |
| 2026-05-05 19:45 | 9.93627 | 43.89419 | 37972 ft | 450 kts | 335° |
| 2026-05-05 19:46 | 9.99291 | 43.86709 | 37964 ft | 450 kts | 335° |
| 2026-05-05 19:46 | 10.04954 | 43.83993 | 37958 ft | 450 kts | 335° |